Portada
METAR-TAF:

METAR-TAF

Aeroports :

Nanquín, Xina

latitud: 32-00N, longitud: 118-48E, altitud: 12 m

Observació

L'informe es va fer fa 53 minuts, a les 02:00 UTC
Vent 6 kt del Nord-Est, variant entre Nord i Est
Temperatura 26°C
Humitat 61%
Pressió 1015 hPa
Visibilitat 10 km o més
Escasses núvols a una alçada de 3300 ft

METAR: ZSNJ 160200Z 05003MPS 350V090 9999 FEW033 26/18 Q1015 NOSIG

Hora: 10:53 (02:53 UTC)

Pronòstic

L'informe es va fer fa 7 hores i 51 minuts, a les 19:02 UTC
Pronòstic vàlid del 16 a les 00 UTC al 16 a les 24 UTC
Vent 8 kt del Nord-Est
Visibilitat: 3000 m
calitja

TAF: ZSNJ 151902Z 1600/1624 04004MPS 3000 HZ NSC TX29/1606Z TN20/1621Z

Observacions i pronòstics meteorològics de més de 4000 aeroports (METAR i TAF).

Les estacions disponibles són els punts grocs i vermells al mapa.

Posi el ratolí al punt desitjat per veure el nom de l'estació.

Feu clic per veure les observacions i els pronòstics meteorològics.

Per canviar el mapa: feu clic els botons verds amb una creu de color negre per apropar; al botó verd amb un guió per allunyar la imatge; o en les fletxes verdes per a mapes adjacents.


METAR-TAF: